Station Historical Data
Daily Summary for February 7, 2017 Units:  English    Metric   Both
« Previous Day
Next Day »
Daily Weekly Monthly Yearly Custom
  High: Low: Average:
Temperature: 52.0 °F 42.8 °F 49.9 °F
Dew Point: 51.4 °F 41.5 °F 49 °F
Humidity: 98 % 95 % 97 %
Wind Speed: 29.0 mph 0.0 mph 10 mph
Wind Gust: 43.0 mph - -
Wind:- - South
Pressure: 30.14 in 29.75 in -
Precipitation: 0.01 in    
Historical Graphs
 
 
Tabular Data for February 7, 2017
Time Temperature Dew Point Pressure Wind Wind Speed Wind Gust Humidity Rainfall Rate (Hourly) solar
00:01 43.0 °F 41.7 °F 29.89 in SSE 9.0 mph 12.0 mph 95 % 0.05 in 0.00 W/m2
00:06 42.9 °F 41.6 °F 29.89 in South 10.0 mph 14.0 mph 95 % 0.05 in 0.00 W/m2
00:11 42.9 °F 41.6 °F 29.89 in SE 11.0 mph 20.0 mph 95 % 0.04 in 0.00 W/m2
00:16 42.8 °F 41.5 °F 29.88 in SSE 14.0 mph 21.0 mph 95 % 0.04 in 0.00 W/m2
00:21 42.8 °F 41.5 °F 29.88 in South 16.0 mph 16.0 mph 95 % 0.06 in 0.00 W/m2
00:26 42.8 °F 41.5 °F 29.88 in SSE 20.0 mph 20.0 mph 95 % 0.06 in 0.00 W/m2
00:31 42.8 °F 41.5 °F 29.88 in South 17.0 mph 21.0 mph 95 % 0.05 in 0.00 W/m2
00:36 42.8 °F 41.5 °F 29.88 in SE 11.0 mph 25.0 mph 95 % 0.05 in 0.00 W/m2
00:41 42.9 °F 41.6 °F 29.88 in SE 15.0 mph 21.0 mph 95 % 0.05 in 0.00 W/m2
00:46 42.9 °F 41.6 °F 29.88 in South 21.0 mph 25.0 mph 95 % 0.07 in 0.00 W/m2
00:51 43.0 °F 41.7 °F 29.88 in South 20.0 mph 20.0 mph 95 % 0.13 in 0.00 W/m2
00:56 43.1 °F 41.8 °F 29.87 in South 16.0 mph 26.0 mph 95 % 0.12 in 0.00 W/m2
01:02 43.2 °F 41.9 °F 29.87 in SSE 13.0 mph 18.0 mph 95 % 0.09 in 0.00 W/m2
01:07 43.3 °F 42.0 °F 29.86 in SSE 19.0 mph 21.0 mph 95 % 0.09 in 0.00 W/m2
01:12 43.4 °F 42.1 °F 29.86 in SSE 13.0 mph 28.0 mph 95 % 0.07 in 0.00 W/m2
01:17 43.6 °F 42.3 °F 29.85 in SE 17.0 mph 31.0 mph 95 % 0.07 in 0.00 W/m2
01:22 43.7 °F 42.4 °F 29.85 in SSE 24.0 mph 24.0 mph 95 % 0.08 in 0.00 W/m2
01:27 43.8 °F 42.5 °F 29.85 in South 22.0 mph 22.0 mph 95 % 0.06 in 0.00 W/m2
01:32 44.0 °F 42.7 °F 29.85 in South 1.0 mph 23.0 mph 95 % 0.06 in 0.00 W/m2
01:37 44.0 °F 42.7 °F 29.85 in South 12.0 mph 21.0 mph 95 % 0.07 in 0.00 W/m2
01:42 44.1 °F 42.8 °F 29.85 in SSE 16.0 mph 19.0 mph 95 % 0.07 in 0.00 W/m2
01:47 44.2 °F 42.9 °F 29.85 in South 11.0 mph 19.0 mph 95 % 0.07 in 0.00 W/m2
01:52 44.4 °F 43.1 °F 29.84 in South 10.0 mph 24.0 mph 95 % 0.08 in 0.00 W/m2
01:57 44.5 °F 43.2 °F 29.84 in South 20.0 mph 26.0 mph 95 % 0.08 in 0.00 W/m2
02:02 44.7 °F 43.4 °F 29.84 in SSE 13.0 mph 24.0 mph 95 % 0.08 in 0.00 W/m2
02:07 44.8 °F 43.5 °F 29.84 in South 12.0 mph 27.0 mph 95 % 0.10 in 0.00 W/m2
02:12 44.9 °F 43.6 °F 29.83 in SSW 16.0 mph 18.0 mph 95 % 0.10 in 0.00 W/m2
02:17 45.0 °F 43.7 °F 29.83 in SSE 16.0 mph 24.0 mph 95 % 0.13 in 0.00 W/m2
02:22 45.1 °F 43.8 °F 29.83 in South 14.0 mph 21.0 mph 95 % 0.08 in 0.00 W/m2
02:27 45.4 °F 44.0 °F 29.83 in SSE 8.0 mph 20.0 mph 95 % 0.05 in 0.00 W/m2
02:32 45.5 °F 44.2 °F 29.82 in SSE 19.0 mph 24.0 mph 95 % 0.13 in 0.00 W/m2
02:37 45.6 °F 44.2 °F 29.83 in South 20.0 mph 24.0 mph 95 % 0.15 in 0.00 W/m2
02:42 45.8 °F 44.5 °F 29.82 in SW 11.0 mph 27.0 mph 95 % 0.17 in 0.00 W/m2
02:47 46.0 °F 44.9 °F 29.82 in SSW 8.0 mph 26.0 mph 96 % 0.12 in 0.00 W/m2
02:52 46.2 °F 45.1 °F 29.82 in South 7.0 mph 20.0 mph 96 % 0.13 in 0.00 W/m2
02:57 46.3 °F 45.2 °F 29.81 in SSE 26.0 mph 27.0 mph 96 % 0.09 in 0.00 W/m2
03:02 46.5 °F 45.4 °F 29.80 in SSW 15.0 mph 27.0 mph 96 % 0.13 in 0.00 W/m2
03:07 46.6 °F 45.5 °F 29.81 in South 21.0 mph 34.0 mph 96 % 0.10 in 0.00 W/m2
03:12 46.8 °F 45.7 °F 29.79 in South 16.0 mph 26.0 mph 96 % 0.06 in 0.00 W/m2
03:17 47.0 °F 45.9 °F 29.80 in South 25.0 mph 30.0 mph 96 % 0.04 in 0.00 W/m2
03:22 47.3 °F 46.2 °F 29.79 in South 18.0 mph 27.0 mph 96 % 0.00 in 0.00 W/m2
03:27 47.5 °F 46.4 °F 29.80 in SSW 27.0 mph 27.0 mph 96 % 0.00 in 0.00 W/m2
03:32 47.7 °F 46.6 °F 29.79 in SSE 22.0 mph 30.0 mph 96 % 0.00 in 0.00 W/m2
03:37 47.8 °F 46.7 °F 29.80 in SSW 26.0 mph 29.0 mph 96 % 0.00 in 0.00 W/m2
03:42 47.9 °F 46.8 °F 29.80 in SSE 14.0 mph 43.0 mph 96 % 0.00 in 0.00 W/m2
03:47 48.1 °F 47.0 °F 29.81 in SSW 25.0 mph 30.0 mph 96 % 0.00 in 0.00 W/m2
03:52 48.1 °F 47.0 °F 29.80 in SSW 29.0 mph 29.0 mph 96 % 0.00 in 0.00 W/m2
03:57 48.1 °F 47.0 °F 29.79 in South 23.0 mph 34.0 mph 96 % 0.00 in 0.00 W/m2
04:02 48.0 °F 46.9 °F 29.78 in SSW 24.0 mph 30.0 mph 96 % 0.00 in 0.00 W/m2
04:07 48.1 °F 47.0 °F 29.78 in SW 7.0 mph 29.0 mph 96 % 0.00 in 0.00 W/m2
04:12 48.1 °F 47.0 °F 29.78 in SSW 7.0 mph 32.0 mph 96 % 0.00 in 0.00 W/m2
04:17 48.2 °F 47.1 °F 29.78 in SSW 27.0 mph 36.0 mph 96 % 0.00 in 0.00 W/m2
04:22 48.3 °F 47.2 °F 29.78 in South 19.0 mph 20.0 mph 96 % 0.00 in 0.00 W/m2
04:27 48.3 °F 47.2 °F 29.78 in SSW 9.0 mph 23.0 mph 96 % 0.05 in 0.00 W/m2
04:32 48.3 °F 47.2 °F 29.77 in SSE 19.0 mph 28.0 mph 96 % 0.05 in 0.00 W/m2
04:37 48.3 °F 47.2 °F 29.77 in South 19.0 mph 30.0 mph 96 % 0.08 in 0.00 W/m2
04:42 48.3 °F 47.2 °F 29.77 in South 12.0 mph 21.0 mph 96 % 0.08 in 0.00 W/m2
04:47 48.4 °F 47.3 °F 29.77 in SE 21.0 mph 35.0 mph 96 % 0.05 in 0.00 W/m2
04:52 48.4 °F 47.3 °F 29.76 in South 23.0 mph 27.0 mph 96 % 0.05 in 0.00 W/m2
04:57 48.4 °F 47.3 °F 29.77 in WSW 17.0 mph 22.0 mph 96 % 0.06 in 0.00 W/m2
05:02 48.5 °F 47.4 °F 29.78 in South 14.0 mph 26.0 mph 96 % 0.31 in 0.00 W/m2
05:07 48.6 °F 47.5 °F 29.77 in South 14.0 mph 28.0 mph 96 % 0.21 in 0.00 W/m2
05:12 48.7 °F 47.6 °F 29.78 in SSW 14.0 mph 40.0 mph 96 % 0.13 in 0.00 W/m2
05:18 48.8 °F 47.7 °F 29.79 in SSW 13.0 mph 21.0 mph 96 % 0.08 in 0.00 W/m2
05:23 48.9 °F 47.8 °F 29.79 in South 10.0 mph 35.0 mph 96 % 0.12 in 0.00 W/m2
05:28 49.0 °F 47.9 °F 29.79 in South 24.0 mph 31.0 mph 96 % 0.17 in 0.00 W/m2
05:33 49.0 °F 47.9 °F 29.77 in South 24.0 mph 25.0 mph 96 % 0.28 in 0.00 W/m2
05:38 49.1 °F 48.0 °F 29.77 in South 25.0 mph 25.0 mph 96 % 0.22 in 0.00 W/m2
05:43 49.1 °F 48.0 °F 29.76 in South 14.0 mph 24.0 mph 96 % 0.22 in 0.00 W/m2
05:48 49.1 °F 48.0 °F 29.75 in SSE 10.0 mph 17.0 mph 96 % 0.27 in 0.00 W/m2
05:53 49.2 °F 48.1 °F 29.76 in SSE 10.0 mph 26.0 mph 96 % 0.46 in 0.00 W/m2
05:58 49.2 °F 48.1 °F 29.76 in SSE 11.0 mph 33.0 mph 96 % 0.30 in 0.00 W/m2
06:03 49.2 °F 48.1 °F 29.75 in SSW 10.0 mph 40.0 mph 96 % 0.20 in 0.00 W/m2
06:08 49.2 °F 48.1 °F 29.77 in SSW 13.0 mph 30.0 mph 96 % 0.20 in 0.00 W/m2
06:13 49.3 °F 48.2 °F 29.75 in SSE 11.0 mph 25.0 mph 96 % 0.59 in 0.00 W/m2
06:18 49.3 °F 48.2 °F 29.76 in SSE 7.0 mph 27.0 mph 96 % 0.28 in 0.00 W/m2
06:23 49.4 °F 48.3 °F 29.76 in SSW 27.0 mph 34.0 mph 96 % 0.51 in 0.00 W/m2
06:28 49.5 °F 48.4 °F 29.77 in SSE 13.0 mph 23.0 mph 96 % 0.54 in 0.00 W/m2
06:33 49.6 °F 48.5 °F 29.77 in SSE 18.0 mph 23.0 mph 96 % 0.41 in 0.00 W/m2
06:38 49.7 °F 48.6 °F 29.78 in WSW 2.0 mph 30.0 mph 96 % 0.24 in 0.00 W/m2
06:43 49.7 °F 48.6 °F 29.78 in South 16.0 mph 22.0 mph 96 % 0.15 in 0.00 W/m2
06:48 49.8 °F 48.7 °F 29.78 in SSE 17.0 mph 26.0 mph 96 % 0.14 in 0.00 W/m2
06:53 49.9 °F 48.8 °F 29.78 in SSW 21.0 mph 30.0 mph 96 % 0.18 in 0.00 W/m2
06:58 49.9 °F 48.8 °F 29.78 in South 24.0 mph 28.0 mph 96 % 0.25 in 0.00 W/m2
07:03 50.0 °F 48.9 °F 29.78 in SSW 29.0 mph 31.0 mph 96 % 0.20 in 0.00 W/m2
07:08 50.0 °F 48.9 °F 29.78 in South 27.0 mph 28.0 mph 96 % 0.15 in 0.00 W/m2
07:13 50.1 °F 49.0 °F 29.78 in SSE 27.0 mph 32.0 mph 96 % 0.09 in 0.00 W/m2
07:18 50.1 °F 49.0 °F 29.79 in South 12.0 mph 32.0 mph 96 % 0.10 in 0.00 W/m2
07:23 50.1 °F 49.0 °F 29.79 in SSW 20.0 mph 28.0 mph 96 % 0.27 in 5.00 W/m2
07:28 50.1 °F 49.0 °F 29.79 in SSW 20.0 mph 29.0 mph 96 % 0.09 in 0.00 W/m2
07:33 50.2 °F 49.1 °F 29.79 in South 19.0 mph 30.0 mph 96 % 0.08 in 5.00 W/m2
07:38 50.2 °F 49.1 °F 29.80 in SW 23.0 mph 23.0 mph 96 % 0.16 in 5.00 W/m2
07:43 50.3 °F 49.2 °F 29.80 in SSW 13.0 mph 23.0 mph 96 % 0.14 in 7.00 W/m2
07:48 50.3 °F 49.2 °F 29.80 in South 14.0 mph 24.0 mph 96 % 0.10 in 7.00 W/m2
07:53 50.3 °F 49.2 °F 29.81 in SSW 8.0 mph 27.0 mph 96 % 0.09 in 11.00 W/m2
07:58 50.3 °F 49.2 °F 29.81 in South 9.0 mph 19.0 mph 96 % 0.10 in 9.00 W/m2
08:03 50.3 °F 49.2 °F 29.81 in SSW 9.0 mph 20.0 mph 96 % 0.31 in 12.00 W/m2
08:08 50.3 °F 49.2 °F 29.82 in South 18.0 mph 21.0 mph 96 % 0.16 in 14.00 W/m2
08:13 50.3 °F 49.2 °F 29.81 in South 20.0 mph 24.0 mph 96 % 0.07 in 16.00 W/m2
08:18 50.4 °F 49.3 °F 29.82 in SSW 16.0 mph 26.0 mph 96 % 0.10 in 12.00 W/m2
08:23 50.5 °F 49.4 °F 29.83 in SSW 21.0 mph 25.0 mph 96 % 0.10 in 12.00 W/m2
08:28 50.5 °F 49.4 °F 29.83 in South 14.0 mph 22.0 mph 96 % 0.06 in 12.00 W/m2
08:33 50.6 °F 49.5 °F 29.84 in SSE 5.0 mph 24.0 mph 96 % 0.06 in 18.00 W/m2
08:38 50.6 °F 49.5 °F 29.84 in SSW 25.0 mph 28.0 mph 96 % 0.09 in 21.00 W/m2
08:43 50.6 °F 49.5 °F 29.85 in South 17.0 mph 20.0 mph 96 % 0.14 in 16.00 W/m2
08:48 50.7 °F 49.6 °F 29.85 in South 14.0 mph 25.0 mph 96 % 0.10 in 26.00 W/m2
08:53 50.8 °F 49.7 °F 29.85 in SSE 11.0 mph 25.0 mph 96 % 0.08 in 28.00 W/m2
08:58 50.8 °F 49.7 °F 29.86 in SSW 14.0 mph 30.0 mph 96 % 0.14 in 30.00 W/m2
09:03 50.8 °F 49.7 °F 29.86 in SW 16.0 mph 20.0 mph 96 % 0.14 in 26.00 W/m2
09:08 50.9 °F 49.8 °F 29.87 in SW 19.0 mph 21.0 mph 96 % 0.14 in 44.00 W/m2
09:13 50.9 °F 49.8 °F 29.87 in SSW 3.0 mph 24.0 mph 96 % 0.14 in 25.00 W/m2
09:18 50.9 °F 49.8 °F 29.87 in South 12.0 mph 22.0 mph 96 % 0.16 in 35.00 W/m2
09:23 50.9 °F 49.8 °F 29.88 in SSW 15.0 mph 24.0 mph 96 % 0.13 in 42.00 W/m2
09:28 51.0 °F 49.9 °F 29.88 in SSW 6.0 mph 22.0 mph 96 % 0.09 in 26.00 W/m2
09:33 50.9 °F 49.8 °F 29.88 in SSW 5.0 mph 19.0 mph 96 % 0.09 in 30.00 W/m2
09:38 50.9 °F 49.8 °F 29.89 in SSW 10.0 mph 22.0 mph 96 % 0.09 in 37.00 W/m2
09:43 50.9 °F 49.8 °F 29.89 in WSW 11.0 mph 19.0 mph 96 % 0.09 in 49.00 W/m2
09:48 50.9 °F 49.8 °F 29.90 in SW 5.0 mph 20.0 mph 96 % 0.09 in 44.00 W/m2
09:53 50.9 °F 49.8 °F 29.90 in SSW 3.0 mph 18.0 mph 96 % 0.08 in 54.00 W/m2
09:58 50.9 °F 49.8 °F 29.90 in SE 6.0 mph 17.0 mph 96 % 0.07 in 40.00 W/m2
10:03 50.9 °F 49.8 °F 29.91 in South 11.0 mph 18.0 mph 96 % 0.07 in 54.00 W/m2
10:08 51.0 °F 49.9 °F 29.91 in SSW 5.0 mph 20.0 mph 96 % 0.06 in 60.00 W/m2
10:13 51.1 °F 50.0 °F 29.92 in South 11.0 mph 14.0 mph 96 % 0.04 in 44.00 W/m2
10:18 51.2 °F 50.1 °F 29.92 in SSW 10.0 mph 20.0 mph 96 % 0.00 in 58.00 W/m2
10:23 51.2 °F 50.1 °F 29.92 in SSW 4.0 mph 24.0 mph 96 % 0.00 in 42.00 W/m2
10:28 51.2 °F 50.1 °F 29.92 in SSE 6.0 mph 12.0 mph 96 % 0.00 in 42.00 W/m2
10:33 51.2 °F 50.1 °F 29.92 in South 12.0 mph 21.0 mph 96 % 0.05 in 44.00 W/m2
10:38 51.2 °F 50.4 °F 29.93 in SSE 4.0 mph 22.0 mph 97 % 0.05 in 42.00 W/m2
10:43 51.3 °F 50.5 °F 29.93 in SSW 12.0 mph 18.0 mph 97 % 0.05 in 56.00 W/m2
10:48 51.4 °F 50.6 °F 29.93 in SSW 16.0 mph 19.0 mph 97 % 0.00 in 62.00 W/m2
10:53 51.4 °F 50.6 °F 29.93 in SW 15.0 mph 18.0 mph 97 % 0.00 in 60.00 W/m2
10:58 51.5 °F 50.7 °F 29.94 in SSE 15.0 mph 22.0 mph 97 % 0.00 in 72.00 W/m2
11:03 51.5 °F 50.7 °F 29.94 in WSW 16.0 mph 21.0 mph 97 % 0.00 in 67.00 W/m2
11:08 51.6 °F 50.8 °F 29.94 in South 5.0 mph 21.0 mph 97 % 0.00 in 62.00 W/m2
11:13 51.6 °F 50.8 °F 29.94 in SSW 4.0 mph 14.0 mph 97 % 0.00 in 51.00 W/m2
11:18 51.7 °F 50.9 °F 29.94 in SSW 9.0 mph 17.0 mph 97 % 0.00 in 60.00 W/m2
11:23 51.7 °F 50.9 °F 29.94 in SSW 12.0 mph 14.0 mph 97 % 0.00 in 77.00 W/m2
11:28 51.8 °F 51.0 °F 29.94 in South 4.0 mph 20.0 mph 97 % 0.00 in 77.00 W/m2
11:33 51.8 °F 51.0 °F 29.95 in SSE 8.0 mph 16.0 mph 97 % 0.00 in 90.00 W/m2
11:38 51.9 °F 51.1 °F 29.94 in SSE 8.0 mph 18.0 mph 97 % 0.00 in 62.00 W/m2
11:43 51.8 °F 51.0 °F 29.94 in South 4.0 mph 18.0 mph 97 % 0.00 in 69.00 W/m2
11:48 51.9 °F 51.1 °F 29.95 in South 9.0 mph 18.0 mph 97 % 0.00 in 74.00 W/m2
11:53 51.9 °F 51.1 °F 29.95 in WSW 5.0 mph 18.0 mph 97 % 0.00 in 70.00 W/m2
11:58 51.9 °F 51.1 °F 29.95 in SSW 9.0 mph 17.0 mph 97 % 0.00 in 56.00 W/m2
12:03 51.9 °F 51.1 °F 29.95 in South 8.0 mph 15.0 mph 97 % 0.00 in 54.00 W/m2
12:08 52.0 °F 51.2 °F 29.95 in SW 8.0 mph 18.0 mph 97 % 0.00 in 42.00 W/m2
12:13 51.9 °F 51.1 °F 29.96 in SSW 12.0 mph 21.0 mph 97 % 0.00 in 37.00 W/m2
12:18 52.0 °F 51.2 °F 29.96 in SW 4.0 mph 18.0 mph 97 % 0.00 in 53.00 W/m2
12:24 52.0 °F 51.2 °F 29.96 in Calm   16.0 mph 97 % 0.00 in 86.00 W/m2
12:28 51.9 °F 51.1 °F 29.96 in SW 6.0 mph 16.0 mph 97 % 0.00 in 69.00 W/m2
12:33 52.0 °F 51.2 °F 29.96 in SSW 5.0 mph 21.0 mph 97 % 0.00 in 56.00 W/m2
12:38 52.0 °F 51.2 °F 29.97 in SSW 21.0 mph 23.0 mph 97 % 0.00 in 47.00 W/m2
12:43 52.0 °F 51.2 °F 29.97 in South 8.0 mph 23.0 mph 97 % 0.00 in 40.00 W/m2
12:48 52.0 °F 51.2 °F 29.97 in SW 10.0 mph 20.0 mph 97 % 0.00 in 40.00 W/m2
12:53 51.9 °F 51.1 °F 29.97 in SSE 8.0 mph 17.0 mph 97 % 0.00 in 54.00 W/m2
12:58 51.9 °F 51.1 °F 29.97 in SSW 8.0 mph 18.0 mph 97 % 0.00 in 44.00 W/m2
13:03 51.9 °F 51.1 °F 29.97 in SE 7.0 mph 20.0 mph 97 % 0.00 in 51.00 W/m2
13:08 51.9 °F 51.1 °F 29.97 in South 12.0 mph 20.0 mph 97 % 0.00 in 35.00 W/m2
13:13 51.8 °F 51.0 °F 29.97 in SW 11.0 mph 21.0 mph 97 % 0.00 in 42.00 W/m2
13:18 51.8 °F 50.7 °F 29.97 in South 11.0 mph 16.0 mph 96 % 0.00 in 37.00 W/m2
13:23 51.7 °F 50.6 °F 29.97 in SW 6.0 mph 18.0 mph 96 % 0.00 in 51.00 W/m2
13:28 51.7 °F 50.6 °F 29.98 in South 3.0 mph 16.0 mph 96 % 0.00 in 47.00 W/m2
13:33 51.7 °F 50.6 °F 29.98 in SW 9.0 mph 12.0 mph 96 % 0.00 in 53.00 W/m2
13:38 51.7 °F 50.6 °F 29.98 in South 12.0 mph 15.0 mph 96 % 0.00 in 51.00 W/m2
13:43 51.7 °F 50.6 °F 29.98 in South 10.0 mph 15.0 mph 96 % 0.00 in 58.00 W/m2
13:48 51.7 °F 50.6 °F 29.98 in South 4.0 mph 10.0 mph 96 % 0.00 in 54.00 W/m2
13:53 51.6 °F 50.8 °F 29.98 in South 9.0 mph 15.0 mph 97 % 0.00 in 62.00 W/m2
13:58 51.6 °F 50.8 °F 29.98 in South 6.0 mph 16.0 mph 97 % 0.00 in 49.00 W/m2
14:03 51.6 °F 50.8 °F 29.99 in South 5.0 mph 16.0 mph 97 % 0.00 in 42.00 W/m2
14:08 51.6 °F 50.8 °F 29.99 in SSE 9.0 mph 13.0 mph 97 % 0.00 in 49.00 W/m2
14:13 51.7 °F 50.9 °F 29.99 in SSE 10.0 mph 13.0 mph 97 % 0.00 in 69.00 W/m2
14:18 51.6 °F 50.8 °F 29.99 in South 4.0 mph 11.0 mph 97 % 0.00 in 42.00 W/m2
14:23 51.6 °F 50.8 °F 29.98 in South 16.0 mph 18.0 mph 97 % 0.00 in 58.00 W/m2
14:28 51.6 °F 50.8 °F 29.98 in SSE 6.0 mph 19.0 mph 97 % 0.00 in 65.00 W/m2
14:33 51.6 °F 50.8 °F 29.98 in South 9.0 mph 10.0 mph 97 % 0.00 in 49.00 W/m2
14:38 51.6 °F 50.8 °F 29.98 in SSW 8.0 mph 18.0 mph 97 % 0.00 in 65.00 W/m2
14:43 51.6 °F 50.8 °F 29.99 in SSE 8.0 mph 11.0 mph 97 % 0.00 in 69.00 W/m2
14:48 51.6 °F 50.8 °F 29.99 in SW 7.0 mph 13.0 mph 97 % 0.00 in 69.00 W/m2
14:53 51.6 °F 50.8 °F 29.99 in SSW 7.0 mph 14.0 mph 97 % 0.00 in 49.00 W/m2
14:58 51.6 °F 50.8 °F 30.00 in South 10.0 mph 11.0 mph 97 % 0.00 in 44.00 W/m2
15:03 51.5 °F 50.7 °F 29.99 in SSW 3.0 mph 21.0 mph 97 % 0.00 in 35.00 W/m2
15:08 51.5 °F 50.7 °F 29.99 in SSE 6.0 mph 13.0 mph 97 % 0.00 in 30.00 W/m2
15:13 51.5 °F 50.7 °F 30.00 in South 7.0 mph 13.0 mph 97 % 0.00 in 35.00 W/m2
15:18 51.5 °F 50.7 °F 30.00 in South 9.0 mph 15.0 mph 97 % 0.00 in 58.00 W/m2
15:23 51.5 °F 50.7 °F 30.01 in SSE 7.0 mph 14.0 mph 97 % 0.00 in 33.00 W/m2
15:28 51.4 °F 50.6 °F 30.02 in SSE 8.0 mph 15.0 mph 97 % 0.00 in 67.00 W/m2
15:33 51.4 °F 50.6 °F 30.02 in South 8.0 mph 15.0 mph 97 % 0.00 in 35.00 W/m2
15:38 51.4 °F 50.6 °F 30.02 in SSE 13.0 mph 14.0 mph 97 % 0.00 in 32.00 W/m2
15:43 51.4 °F 50.6 °F 30.02 in South 8.0 mph 10.0 mph 97 % 0.00 in 28.00 W/m2
15:48 51.4 °F 50.6 °F 30.02 in SSW 4.0 mph 12.0 mph 97 % 0.00 in 28.00 W/m2
15:53 51.4 °F 50.6 °F 30.03 in South 8.0 mph 15.0 mph 97 % 0.00 in 30.00 W/m2
15:59 51.4 °F 50.6 °F 30.03 in Calm   7.0 mph 97 % 0.00 in 14.00 W/m2
16:04 51.3 °F 50.5 °F 30.03 in SSE 8.0 mph 11.0 mph 97 % 0.00 in 35.00 W/m2
16:09 51.3 °F 50.5 °F 30.02 in SSE 9.0 mph 10.0 mph 97 % 0.00 in 37.00 W/m2
16:14 51.3 °F 50.5 °F 30.02 in SSE 8.0 mph 11.0 mph 97 % 0.00 in 46.00 W/m2
16:19 51.4 °F 50.6 °F 30.03 in South 6.0 mph 8.0 mph 97 % 0.00 in 19.00 W/m2
16:24 51.4 °F 50.6 °F 30.04 in Calm   9.0 mph 97 % 0.00 in 14.00 W/m2
16:29 51.3 °F 50.5 °F 30.03 in South 8.0 mph 19.0 mph 97 % 0.00 in 26.00 W/m2
16:34 51.3 °F 50.5 °F 30.03 in South 4.0 mph 16.0 mph 97 % 0.00 in 14.00 W/m2
16:39 51.3 °F 50.5 °F 30.03 in South 7.0 mph 13.0 mph 97 % 0.00 in 12.00 W/m2
16:44 51.3 °F 50.5 °F 30.04 in South 7.0 mph 14.0 mph 97 % 0.00 in 12.00 W/m2
16:49 51.3 °F 50.5 °F 30.04 in Calm   9.0 mph 97 % 0.00 in 9.00 W/m2
16:54 51.3 °F 50.5 °F 30.04 in South 9.0 mph 11.0 mph 97 % 0.00 in 11.00 W/m2
16:59 51.3 °F 50.5 °F 30.04 in SSE 6.0 mph 11.0 mph 97 % 0.00 in 7.00 W/m2
17:04 51.3 °F 50.5 °F 30.04 in SSE 6.0 mph 11.0 mph 97 % 0.00 in 9.00 W/m2
17:09 51.3 °F 50.5 °F 30.04 in SSE 2.0 mph 8.0 mph 97 % 0.00 in 5.00 W/m2
17:14 51.3 °F 50.5 °F 30.05 in SSE 9.0 mph 13.0 mph 97 % 0.00 in 5.00 W/m2
17:19 51.4 °F 50.6 °F 30.05 in South 5.0 mph 10.0 mph 97 % 0.00 in 0.00 W/m2
17:24 51.4 °F 50.6 °F 30.05 in SSE 7.0 mph 10.0 mph 97 % 0.00 in 0.00 W/m2
17:29 51.4 °F 50.6 °F 30.06 in SSE 10.0 mph 11.0 mph 97 % 0.00 in 0.00 W/m2
17:34 51.4 °F 50.6 °F 30.06 in SE 14.0 mph 15.0 mph 97 % 0.00 in 0.00 W/m2
17:39 51.3 °F 50.5 °F 30.06 in SSE 9.0 mph 18.0 mph 97 % 0.00 in 0.00 W/m2
17:44 51.3 °F 50.5 °F 30.06 in SE 5.0 mph 13.0 mph 97 % 0.00 in 0.00 W/m2
17:49 51.3 °F 50.5 °F 30.06 in Calm   11.0 mph 97 % 0.00 in 0.00 W/m2
17:54 51.3 °F 50.5 °F 30.06 in SE 7.0 mph 13.0 mph 97 % 0.00 in 0.00 W/m2
17:59 51.3 °F 50.5 °F 30.07 in SSE 8.0 mph 15.0 mph 97 % 0.00 in 0.00 W/m2
18:04 51.2 °F 50.4 °F 30.07 in SSW 9.0 mph 14.0 mph 97 % 0.00 in 0.00 W/m2
18:09 51.3 °F 50.5 °F 30.08 in SSE 4.0 mph 12.0 mph 97 % 0.00 in 0.00 W/m2
18:14 51.2 °F 50.4 °F 30.08 in SSE 1.0 mph 11.0 mph 97 % 0.00 in 0.00 W/m2
18:18 51.2 °F 50.4 °F 30.08 in SSE 4.0 mph 7.0 mph 97 % 0.00 in 0.00 W/m2
18:23 51.2 °F 50.4 °F 30.08 in SE 6.0 mph 8.0 mph 97 % 0.00 in 0.00 W/m2
18:29 51.2 °F 50.4 °F 30.08 in SE 6.0 mph 12.0 mph 97 % 0.00 in 0.00 W/m2
18:34 51.1 °F 50.0 °F 30.08 in SE 6.0 mph 9.0 mph 96 % 0.00 in 0.00 W/m2
18:38 51.0 °F 49.9 °F 30.08 in SE 4.0 mph 11.0 mph 96 % 0.00 in 0.00 W/m2
18:43 51.0 °F 49.9 °F 30.08 in SE 4.0 mph 8.0 mph 96 % 0.00 in 0.00 W/m2
18:49 50.9 °F 49.8 °F 30.08 in SE 9.0 mph 9.0 mph 96 % 0.00 in 0.00 W/m2
18:54 50.9 °F 49.8 °F 30.09 in SE 6.0 mph 10.0 mph 96 % 0.00 in 0.00 W/m2
18:59 50.8 °F 50.0 °F 30.08 in SSE 5.0 mph 10.0 mph 97 % 0.00 in 0.00 W/m2
19:04 50.7 °F 49.9 °F 30.08 in SSE 7.0 mph 9.0 mph 97 % 0.00 in 0.00 W/m2
19:09 50.7 °F 49.9 °F 30.08 in SSE 10.0 mph 14.0 mph 97 % 0.00 in 0.00 W/m2
19:14 50.7 °F 49.9 °F 30.08 in SE 6.0 mph 11.0 mph 97 % 0.00 in 0.00 W/m2
19:19 50.7 °F 49.9 °F 30.08 in SE 10.0 mph 12.0 mph 97 % 0.00 in 0.00 W/m2
19:24 50.6 °F 49.8 °F 30.08 in SE 8.0 mph 10.0 mph 97 % 0.00 in 0.00 W/m2
19:29 50.7 °F 49.9 °F 30.09 in SE 5.0 mph 10.0 mph 97 % 0.00 in 0.00 W/m2
19:34 50.7 °F 49.9 °F 30.09 in SSE 10.0 mph 11.0 mph 97 % 0.00 in 0.00 W/m2
19:39 50.7 °F 49.9 °F 30.09 in SSE 5.0 mph 8.0 mph 97 % 0.00 in 0.00 W/m2
19:44 50.6 °F 49.8 °F 30.10 in SSE 11.0 mph 13.0 mph 97 % 0.00 in 0.00 W/m2
19:49 50.7 °F 49.9 °F 30.10 in SSE 6.0 mph 11.0 mph 97 % 0.00 in 0.00 W/m2
19:54 50.7 °F 49.9 °F 30.11 in SSE 4.0 mph 8.0 mph 97 % 0.00 in 0.00 W/m2
19:59 50.8 °F 50.0 °F 30.11 in Calm     97 % 0.00 in 0.00 W/m2
20:04 50.8 °F 50.0 °F 30.11 in Calm     97 % 0.00 in 0.00 W/m2
20:09 50.8 °F 50.0 °F 30.11 in Calm     97 % 0.00 in 0.00 W/m2
20:14 50.9 °F 50.1 °F 30.11 in SSE 9.0 mph 11.0 mph 97 % 0.00 in 0.00 W/m2
20:19 50.9 °F 50.1 °F 30.11 in SSE 6.0 mph 8.0 mph 97 % 0.00 in 0.00 W/m2
20:24 50.9 °F 50.1 °F 30.11 in Calm   9.0 mph 97 % 0.00 in 0.00 W/m2
20:29 50.9 °F 50.1 °F 30.11 in Calm     97 % 0.00 in 0.00 W/m2
20:34 50.9 °F 50.1 °F 30.11 in SSE 7.0 mph 10.0 mph 97 % 0.00 in 0.00 W/m2
20:39 51.0 °F 50.2 °F 30.11 in SSE 8.0 mph 11.0 mph 97 % 0.00 in 0.00 W/m2
20:44 51.0 °F 50.2 °F 30.11 in Calm   8.0 mph 97 % 0.00 in 0.00 W/m2
20:49 51.0 °F 50.2 °F 30.12 in Calm     97 % 0.00 in 0.00 W/m2
20:54 51.0 °F 50.2 °F 30.12 in Calm     97 % 0.00 in 0.00 W/m2
20:59 51.0 °F 50.2 °F 30.12 in Calm     97 % 0.00 in 0.00 W/m2
21:04 51.0 °F 50.2 °F 30.12 in Calm     97 % 0.00 in 0.00 W/m2
21:09 51.1 °F 50.3 °F 30.12 in Calm     97 % 0.00 in 0.00 W/m2
21:14 51.1 °F 50.3 °F 30.12 in Calm   9.0 mph 97 % 0.00 in 0.00 W/m2
21:19 51.2 °F 50.4 °F 30.12 in Calm     97 % 0.00 in 0.00 W/m2
21:24 51.2 °F 50.4 °F 30.12 in Calm     97 % 0.00 in 0.00 W/m2
21:29 51.2 °F 50.4 °F 30.12 in Calm   9.0 mph 97 % 0.00 in 0.00 W/m2
21:34 51.2 °F 50.4 °F 30.12 in Calm     97 % 0.00 in 0.00 W/m2
21:39 51.2 °F 50.4 °F 30.13 in Calm     97 % 0.00 in 0.00 W/m2
21:44 51.3 °F 50.5 °F 30.13 in Calm     97 % 0.00 in 0.00 W/m2
21:49 51.3 °F 50.5 °F 30.13 in Calm   4.0 mph 97 % 0.00 in 0.00 W/m2
21:54 51.4 °F 50.6 °F 30.13 in Calm     97 % 0.00 in 0.00 W/m2
21:59 51.4 °F 50.6 °F 30.14 in Calm     97 % 0.00 in 0.00 W/m2
22:04 51.5 °F 50.7 °F 30.14 in South 6.0 mph 9.0 mph 97 % 0.00 in 0.00 W/m2
22:09 51.5 °F 50.7 °F 30.14 in Calm   1.0 mph 97 % 0.00 in 0.00 W/m2
22:14 51.5 °F 50.7 °F 30.13 in Calm   1.0 mph 97 % 0.00 in 0.00 W/m2
22:19 51.5 °F 51.0 °F 30.13 in Calm   1.0 mph 98 % 0.00 in 0.00 W/m2
22:24 51.6 °F 51.1 °F 30.13 in Calm     98 % 0.00 in 0.00 W/m2
22:29 51.6 °F 51.1 °F 30.13 in Calm   10.0 mph 98 % 0.00 in 0.00 W/m2
22:34 51.6 °F 51.1 °F 30.13 in SSE 5.0 mph 9.0 mph 98 % 0.00 in 0.00 W/m2
22:39 51.6 °F 51.1 °F 30.13 in Calm   9.0 mph 98 % 0.00 in 0.00 W/m2
22:44 51.6 °F 51.1 °F 30.13 in Calm   9.0 mph 98 % 0.00 in 0.00 W/m2
22:49 51.6 °F 51.1 °F 30.14 in SSE 7.0 mph 9.0 mph 98 % 0.00 in 0.00 W/m2
22:54 51.7 °F 51.2 °F 30.14 in SSE 4.0 mph 10.0 mph 98 % 0.00 in 0.00 W/m2
22:59 51.6 °F 51.1 °F 30.14 in Calm     98 % 0.04 in 0.00 W/m2
23:04 51.6 °F 51.1 °F 30.13 in Calm     98 % 0.29 in 0.00 W/m2
23:09 51.6 °F 51.1 °F 30.13 in SSE 5.0 mph 10.0 mph 98 % 0.20 in 0.00 W/m2
23:14 51.6 °F 51.1 °F 30.13 in SSE 5.0 mph 12.0 mph 98 % 0.07 in 0.00 W/m2
23:19 51.6 °F 51.1 °F 30.13 in SSE 8.0 mph 10.0 mph 98 % 0.06 in 0.00 W/m2
23:24 51.7 °F 51.2 °F 30.13 in South 12.0 mph 12.0 mph 98 % 0.06 in 0.00 W/m2
23:29 51.7 °F 51.2 °F 30.13 in South 7.0 mph 10.0 mph 98 % 0.05 in 0.00 W/m2
23:34 51.7 °F 51.2 °F 30.13 in South 4.0 mph 12.0 mph 98 % 0.00 in 0.00 W/m2
23:39 51.8 °F 51.3 °F 30.13 in Calm   10.0 mph 98 % 0.00 in 0.00 W/m2
23:44 51.8 °F 51.3 °F 30.13 in SSE 2.0 mph 10.0 mph 98 % 0.00 in 0.00 W/m2
23:49 51.8 °F 51.3 °F 30.13 in SSE 1.0 mph 10.0 mph 98 % 0.00 in 0.00 W/m2
23:54 51.9 °F 51.4 °F 30.13 in SSE 10.0 mph 15.0 mph 98 % 0.00 in 0.00 W/m2
23:59 51.9 °F 51.4 °F 30.13 in SSE 4.0 mph 10.0 mph 98 % 0.00 in 0.00 W/m2
Juneau County Weather
Compliments of Weather Underground - 4.5 mb
 WU-history PHP script courtesy of   Juneau County Weather.
powered by Cumulus v1.9.3 (1059)
Ambient Weather VWS v14.00
Top Contact Website Map Copyright © 2007 - 2018 Foresthillweather.com Never base important decisions on this or any weather information obtained from the Internet